Time;durP1;ratioP1;P1;durP2;ratioP2;P2;SDS_P1;SDS_P2;PMS_P1;PMS_P2;Temp;Humidity;BMP_temperature;BMP_pressure;BME280_temperature;BME280_humidity;BME280_pressure;Samples;Min_cycle;Max_cycle;Signal;HPM_P1;HPM_P2
2022/03/05 00:00:13;;;;;;;;;48.00;37.50;;;;;12.56;62.36;101300.28;4994683;28;45379;-79
2022/03/05 00:02:38;;;;;;;;;47.50;38.25;;;;;12.51;62.39;101297.88;4994741;28;45394;-80
2022/03/05 00:05:04;;;;;;;;;49.00;39.00;;;;;12.51;62.20;101297.88;4993953;28;45468;-80
2022/03/05 00:07:30;;;;;;;;;49.25;40.00;;;;;12.43;62.27;101289.41;4994992;28;45362;-81
2022/03/05 00:09:56;;;;;;;;;41.75;35.50;;;;;12.45;62.46;101287.53;4991638;28;45458;-80
2022/03/05 00:12:22;;;;;;;;;46.75;36.00;;;;;12.52;62.40;101293.38;4993606;28;46243;-80
2022/03/05 00:14:47;;;;;;;;;41.75;36.00;;;;;12.51;62.25;101286.34;4994963;28;45587;-80
2022/03/05 00:17:12;;;;;;;;;54.50;40.00;;;;;12.51;62.28;101297.03;4994096;28;45618;-80
2022/03/05 00:19:38;;;;;;;;;46.75;37.75;;;;;12.47;62.35;101292.78;4993528;28;45487;-81
2022/03/05 00:22:03;;;;;;;;;47.00;37.25;;;;;12.49;62.17;101289.09;4993077;28;49618;-80
2022/03/05 00:24:29;;;;;;;;;47.50;38.25;;;;;12.47;62.31;101284.78;4991209;28;45839;-79
2022/03/05 00:26:54;;;;;;;;;47.50;37.75;;;;;12.49;62.38;101280.22;4993026;28;45934;-78
2022/03/05 00:29:20;;;;;;;;;41.75;35.00;;;;;12.46;62.24;101281.25;4990744;28;48487;-78
2022/03/05 00:31:45;;;;;;;;;41.25;36.75;;;;;12.48;62.19;101287.38;4991661;28;46066;-79
2022/03/05 00:34:11;;;;;;;;;45.50;38.00;;;;;12.42;62.38;101285.03;4991232;28;45771;-79
2022/03/05 00:36:38;;;;;;;;;45.00;36.50;;;;;12.41;62.21;101283.31;4989628;28;45406;-79
2022/03/05 00:39:04;;;;;;;;;38.25;34.00;;;;;12.44;62.28;101293.81;4991495;28;45398;-79
2022/03/05 00:41:29;;;;;;;;;49.25;39.75;;;;;12.40;62.59;101286.06;4990041;28;46469;-79
2022/03/05 00:43:54;;;;;;;;;38.50;33.75;;;;;12.40;62.23;101286.91;4991839;28;45511;-79
2022/03/05 00:46:20;;;;;;;;;47.75;39.75;;;;;12.40;62.19;101284.25;4991617;28;50549;-80
2022/03/05 00:48:45;;;;;;;;;45.00;36.25;;;;;12.38;62.44;101290.63;4991758;28;45545;-80
2022/03/05 00:51:10;;;;;;;;;43.00;34.75;;;;;12.33;62.54;101285.53;4992010;28;45837;-79
2022/03/05 00:53:36;;;;;;;;;36.75;32.50;;;;;12.28;62.58;101275.09;4992609;28;45283;-79
2022/03/05 00:56:01;;;;;;;;;44.25;37.25;;;;;12.32;62.62;101286.50;4991776;28;45425;-80
2022/03/05 00:58:26;;;;;;;;;43.00;35.50;;;;;12.30;62.64;101283.03;4982395;28;45634;-81
2022/03/05 01:00:52;;;;;;;;;45.25;37.00;;;;;12.32;62.52;101278.47;4991106;28;45651;-79
2022/03/05 01:03:18;;;;;;;;;49.00;36.50;;;;;12.34;62.49;101289.94;4991061;28;45458;-80
2022/03/05 01:05:43;;;;;;;;;45.00;36.50;;;;;12.30;62.34;101277.69;4992486;28;45529;-80
2022/03/05 01:08:09;;;;;;;;;43.25;36.75;;;;;12.26;62.50;101282.31;4991839;28;46728;-79
2022/03/05 01:10:35;;;;;;;;;36.00;31.00;;;;;12.27;62.03;101275.22;4991050;28;46225;-79
2022/03/05 01:13:00;;;;;;;;;38.75;33.50;;;;;12.28;62.34;101280.44;4991305;28;45647;-80
2022/03/05 01:15:25;;;;;;;;;43.25;36.25;;;;;12.28;62.14;101280.44;4991793;28;45909;-80
2022/03/05 01:17:51;;;;;;;;;43.75;34.50;;;;;12.25;62.22;101279.75;4992065;28;45647;-80
2022/03/05 01:20:16;;;;;;;;;43.25;35.00;;;;;12.23;62.05;101273.63;4991268;28;47243;-80
2022/03/05 01:22:42;;;;;;;;;44.00;35.00;;;;;12.28;62.26;101277.78;4991434;28;45485;-80
2022/03/05 01:25:07;;;;;;;;;39.25;35.00;;;;;12.23;61.84;101271.81;4991539;28;45493;-80
2022/03/05 01:27:33;;;;;;;;;36.75;33.25;;;;;12.28;62.03;101276.91;4991025;28;45480;-81
2022/03/05 01:29:58;;;;;;;;;43.25;34.00;;;;;12.28;62.14;101277.78;4992093;28;46027;-80
2022/03/05 01:32:23;;;;;;;;;40.75;33.50;;;;;12.27;62.20;101275.22;4990791;28;45477;-81
2022/03/05 01:34:49;;;;;;;;;41.75;35.25;;;;;12.26;62.06;101282.31;4993811;28;45546;-80
2022/03/05 01:37:14;;;;;;;;;41.75;34.00;;;;;12.22;62.02;101277.22;4994733;28;45428;-84
2022/03/05 01:39:41;;;;;;;;;41.25;34.25;;;;;12.22;62.14;101271.91;4995110;28;45687;-82
2022/03/05 01:42:07;;;;;;;;;32.75;31.25;;;;;12.12;61.93;101266.19;4998766;28;45400;-83
2022/03/05 01:44:32;;;;;;;;;36.25;31.50;;;;;12.14;62.01;101272.31;4993938;28;45449;-83
2022/03/05 01:47:01;;;;;;;;;38.50;32.75;;;;;12.14;62.12;101281.19;4995656;28;45283;-82
2022/03/05 01:49:27;;;;;;;;;34.75;32.75;;;;;12.11;62.18;101269.81;4995424;28;46425;-83
2022/03/05 01:51:54;;;;;;;;;37.50;34.00;;;;;12.06;62.14;101262.06;5000816;28;45874;-83
2022/03/05 01:54:19;;;;;;;;;34.00;31.50;;;;;12.09;62.13;101266.38;4996159;28;45483;-82
2022/03/05 01:56:45;;;;;;;;;38.50;34.00;;;;;12.09;62.11;101277.03;4996578;28;45369;-83
2022/03/05 01:59:10;;;;;;;;;39.25;33.25;;;;;12.09;62.17;101277.03;4995622;28;45911;-82
2022/03/05 02:01:36;;;;;;;;;35.25;31.25;;;;;12.08;62.34;101281.53;4997197;28;45409;-83
2022/03/05 02:04:02;;;;;;;;;33.25;31.25;;;;;12.07;62.20;101276.25;4993811;28;45372;-80
2022/03/05 02:06:27;;;;;;;;;31.25;28.50;;;;;12.06;62.32;101277.22;4997775;28;45729;-81
2022/03/05 02:08:56;;;;;;;;;34.50;31.50;;;;;12.04;62.32;101281.78;4996614;28;46010;-82
2022/03/05 02:11:22;;;;;;;;;29.25;28.25;;;;;12.01;62.47;101284.63;4995388;28;45483;-83
2022/03/05 02:13:47;;;;;;;;;30.75;27.25;;;;;11.94;62.50;101268.91;4995382;28;45776;-84
2022/03/05 02:16:13;;;;;;;;;36.25;32.00;;;;;11.99;62.37;101278.50;4999533;28;45475;-83
2022/03/05 02:18:43;;;;;;;;;37.00;32.75;;;;;11.97;62.46;101272.38;4995455;28;45912;-84
2022/03/05 02:21:09;;;;;;;;;38.75;31.75;;;;;11.97;62.30;101272.38;4995944;28;45569;-83
2022/03/05 02:23:34;;;;;;;;;38.75;34.00;;;;;11.94;62.62;101273.41;4995776;28;45456;-84
2022/03/05 02:26:05;;;;;;;;;36.25;32.50;;;;;11.95;62.45;101269.78;4994940;28;49828;-84
2022/03/05 02:28:32;;;;;;;;;37.50;32.25;;;;;11.89;62.39;101268.31;4995230;28;45511;-82
2022/03/05 02:30:57;;;;;;;;;40.25;33.75;;;;;11.87;62.40;101264.84;4995108;28;45527;-82
2022/03/05 02:33:23;;;;;;;;;36.75;34.00;;;;;11.92;62.48;101275.28;4999928;28;45489;-82
2022/03/05 02:35:49;;;;;;;;;39.50;32.50;;;;;11.90;62.60;101272.69;4996056;28;45453;-82
2022/03/05 02:38:17;;;;;;;;;30.75;30.50;;;;;11.89;62.56;101264.78;4994570;28;45572;-82
2022/03/05 02:40:44;;;;;;;;;40.25;32.25;;;;;11.87;62.70;101269.34;4994461;28;45555;-82
2022/03/05 02:43:10;;;;;;;;;31.50;30.00;;;;;11.83;62.92;101259.72;4997436;28;45441;-81
2022/03/05 02:45:36;;;;;;;;;27.00;27.00;;;;;11.83;62.69;101276.59;4994765;28;45497;-82
2022/03/05 02:48:04;;;;;;;;;37.00;31.50;;;;;11.85;62.71;101264.03;4994341;28;46243;-82
2022/03/05 02:50:30;;;;;;;;;31.75;31.50;;;;;11.82;62.91;101264.19;4994719;28;45703;-82
2022/03/05 02:52:56;;;;;;;;;38.50;28.25;;;;;11.81;62.80;101257.16;4993736;28;45630;-82
2022/03/05 02:55:21;;;;;;;;;30.50;27.00;;;;;11.87;63.24;101272.00;4994983;28;45450;-82
2022/03/05 02:57:47;;;;;;;;;26.75;26.75;;;;;11.85;62.91;101261.38;4994622;28;45846;-82
2022/03/05 03:00:12;;;;;;;;;35.00;31.25;;;;;11.85;62.85;101268.50;4994785;28;45402;-82
2022/03/05 03:02:38;;;;;;;;;32.50;30.00;;;;;11.82;63.09;101264.19;4995647;28;45652;-83
2022/03/05 03:05:04;;;;;;;;;33.00;28.00;;;;;11.77;63.15;101252.91;4994584;28;45473;-82
2022/03/05 03:07:30;;;;;;;;;30.25;25.50;;;;;11.82;62.99;101260.69;4994532;28;46266;-82
2022/03/05 03:09:55;;;;;;;;;38.75;30.50;;;;;11.85;62.75;101258.69;4994479;28;45449;-82
2022/03/05 03:12:21;;;;;;;;;32.25;31.00;;;;;11.85;62.75;101264.03;4995223;28;45752;-82
2022/03/05 03:14:47;;;;;;;;;31.00;30.75;;;;;11.84;62.92;101258.81;4997065;28;45429;-83
2022/03/05 03:17:12;;;;;;;;;33.00;28.00;;;;;11.85;62.77;101266.69;4994957;28;52094;-82
2022/03/05 03:19:37;;;;;;;;;41.75;32.75;;;;;11.80;62.84;101260.75;4994356;28;45524;-81
2022/03/05 03:22:03;;;;;;;;;39.75;33.00;;;;;11.78;62.84;101262.63;4995078;28;45729;-81
2022/03/05 03:24:28;;;;;;;;;35.25;31.50;;;;;11.73;62.77;101243.34;4994401;28;45367;-81
2022/03/05 03:26:54;;;;;;;;;34.75;32.00;;;;;11.82;62.59;101269.53;4995052;28;46194;-81
2022/03/05 03:29:19;;;;;;;;;39.25;32.75;;;;;11.75;62.57;101259.28;4994619;28;45547;-81
2022/03/05 03:31:44;;;;;;;;;33.75;30.00;;;;;11.80;62.66;101271.41;4994982;28;45564;-82
2022/03/05 03:34:09;;;;;;;;;40.75;32.00;;;;;11.75;62.71;101257.47;4994981;28;45504;-83
2022/03/05 03:36:35;;;;;;;;;39.25;34.50;;;;;11.79;62.82;101269.72;4995385;28;45317;-82
2022/03/05 03:39:00;;;;;;;;;39.75;33.25;;;;;11.80;62.74;101271.41;4995646;28;45500;-82
2022/03/05 03:41:25;;;;;;;;;40.50;31.50;;;;;11.74;62.69;101258.44;4994698;28;45505;-82
2022/03/05 03:43:51;;;;;;;;;33.50;31.00;;;;;11.73;62.39;101259.34;4994789;28;45546;-82
2022/03/05 03:46:16;;;;;;;;;33.25;31.25;;;;;11.75;62.58;101262.81;4994535;28;48412;-82
2022/03/05 03:48:41;;;;;;;;;39.75;33.25;;;;;11.75;62.44;101264.63;4994634;28;45510;-82
2022/03/05 03:51:07;;;;;;;;;36.75;34.25;;;;;11.79;62.41;101272.38;4995485;28;45532;-82
2022/03/05 03:53:32;;;;;;;;;33.25;30.75;;;;;11.70;62.39;101259.53;4994945;28;45294;-81
2022/03/05 03:55:58;;;;;;;;;38.75;34.00;;;;;11.70;62.55;101262.19;4994556;28;45263;-82
2022/03/05 03:58:23;;;;;;;;;34.00;32.00;;;;;11.68;62.36;101256.06;4993977;28;45579;-82
2022/03/05 04:00:48;;;;;;;;;33.25;31.75;;;;;11.67;62.43;101257.88;4994602;28;45381;-82
2022/03/05 04:03:14;;;;;;;;;36.50;33.00;;;;;11.69;62.47;101264.00;4994306;28;45354;-81
2022/03/05 04:05:39;;;;;;;;;34.50;32.50;;;;;11.69;62.40;101260.47;4995343;28;47500;-83
2022/03/05 04:10:48;;;;;;;;;38.75;34.00;;;;;11.64;62.96;101262.50;4994151;28;45306;-82
2022/03/05 04:13:14;;;;;;;;;33.50;29.75;;;;;11.59;62.48;101257.41;4994118;28;45421;-82
2022/03/05 04:15:39;;;;;;;;;36.75;32.00;;;;;11.64;62.53;101262.50;4994638;28;46097;-82
2022/03/05 04:18:06;;;;;;;;;39.50;33.25;;;;;11.60;62.75;101250.28;4995509;28;45751;-82
2022/03/05 04:20:32;;;;;;;;;41.75;33.25;;;;;11.62;62.56;101259.94;4994388;28;47137;-82
2022/03/05 04:22:58;;;;;;;;;31.00;27.50;;;;;11.56;62.63;101257.56;4994286;28;45582;-82
2022/03/05 04:25:24;;;;;;;;;39.00;33.50;;;;;11.56;62.54;101262.91;4994107;28;46124;-82
2022/03/05 04:27:50;;;;;;;;;37.00;31.50;;;;;11.55;62.43;101249.66;4994148;28;45413;-82
2022/03/05 04:30:15;;;;;;;;;40.00;33.75;;;;;11.57;62.52;101261.09;4995001;28;45709;-82
2022/03/05 04:32:41;;;;;;;;;40.25;34.00;;;;;11.56;62.58;101262.03;4982560;28;45727;-82
2022/03/05 04:35:08;;;;;;;;;45.00;35.75;;;;;11.59;62.77;101269.88;4983706;28;47192;-82
2022/03/05 04:37:34;;;;;;;;;36.50;32.75;;;;;11.61;62.61;101268.00;4983830;28;45511;-82
2022/03/05 04:39:59;;;;;;;;;37.00;34.50;;;;;11.47;62.86;101253.59;4982669;28;45450;-82
2022/03/05 04:42:24;;;;;;;;;40.25;34.25;;;;;11.58;62.70;101271.69;4978788;28;45405;-82
2022/03/05 04:44:50;;;;;;;;;42.50;33.75;;;;;11.57;62.66;101275.31;4995541;28;45468;-82
2022/03/05 04:47:15;;;;;;;;;34.75;32.00;;;;;11.50;62.87;101263.22;4985786;28;45441;-82
2022/03/05 04:49:41;;;;;;;;;32.75;31.25;;;;;11.55;62.67;101266.53;4983702;28;45398;-82
2022/03/05 04:52:06;;;;;;;;;36.50;32.25;;;;;11.54;62.75;101271.91;4987561;28;45346;-81
2022/03/05 04:54:33;;;;;;;;;39.25;34.50;;;;;11.45;62.81;101265.28;4995119;28;48127;-81
2022/03/05 04:56:58;;;;;;;;;42.00;34.25;;;;;11.49;62.86;101270.34;4994833;28;45352;-81
2022/03/05 04:59:23;;;;;;;;;36.75;32.75;;;;;11.47;62.96;101272.25;4993577;28;45543;-81
2022/03/05 05:01:49;;;;;;;;;33.00;28.50;;;;;11.43;62.84;101269.81;4994801;28;45511;-81
2022/03/05 05:04:14;;;;;;;;;42.50;36.50;;;;;11.36;63.12;101255.09;4994597;28;45984;-82
2022/03/05 05:06:39;;;;;;;;;34.25;32.50;;;;;11.37;63.10;101262.97;4994784;28;45621;-81
2022/03/05 05:09:05;;;;;;;;;44.75;36.50;;;;;11.38;62.83;101272.72;4995524;28;45505;-81
2022/03/05 05:11:30;;;;;;;;;40.25;36.25;;;;;11.34;63.09;101272.94;4992984;28;45364;-81
2022/03/05 05:13:56;;;;;;;;;39.50;35.00;;;;;11.24;63.02;101269.88;4994462;28;45437;-81
2022/03/05 05:16:21;;;;;;;;;41.00;36.00;;;;;11.15;63.04;101265.88;4993751;28;45485;-81
2022/03/05 05:21:31;;;;;;;;;41.75;34.00;;;;;11.24;63.08;101284.06;4993963;28;45560;-82
2022/03/05 05:23:57;;;;;;;;;43.25;37.25;;;;;11.22;63.08;101280.63;4993699;28;45605;-82
2022/03/05 05:26:22;;;;;;;;;46.25;38.50;;;;;11.24;63.31;101292.06;4993981;28;45541;-82
2022/03/05 05:28:48;;;;;;;;;47.00;38.75;;;;;11.21;63.03;101280.72;4994251;28;45532;-81
2022/03/05 05:31:13;;;;;;;;;48.75;36.50;;;;;11.21;63.08;101288.72;4992561;28;45429;-82
2022/03/05 05:33:43;;;;;;;;;41.50;35.00;;;;;11.22;63.10;101285.09;4994090;28;45328;-81
2022/03/05 05:36:09;;;;;;;;;43.75;36.50;;;;;11.23;63.11;101292.13;4994343;28;45646;-81
2022/03/05 05:38:34;;;;;;;;;43.75;36.50;;;;;11.19;62.79;101285.25;4994065;28;45450;-82
2022/03/05 05:41:00;;;;;;;;;42.25;33.00;;;;;11.21;62.96;101296.69;4994022;28;45462;-82
2022/03/05 05:43:26;;;;;;;;;46.75;37.25;;;;;11.19;62.87;101295.91;4993721;28;46025;-82
2022/03/05 05:45:51;;;;;;;;;39.75;34.00;;;;;11.18;62.95;101295.03;4994368;28;45374;-81
2022/03/05 05:48:16;;;;;;;;;45.50;39.25;;;;;11.16;63.01;101298.69;4993696;28;46930;-81
2022/03/05 05:50:43;;;;;;;;;44.25;36.25;;;;;11.07;62.95;101295.56;4994581;28;45467;-81
2022/03/05 05:53:08;;;;;;;;;49.00;39.75;;;;;11.12;62.96;101294.50;4993387;28;45552;-81
2022/03/05 05:55:34;;;;;;;;;46.00;36.00;;;;;11.13;62.98;101290.88;4993949;28;45492;-82
2022/03/05 05:57:59;;;;;;;;;48.25;37.50;;;;;11.12;63.13;101297.16;4994064;28;45391;-81
2022/03/05 06:00:24;;;;;;;;;52.50;38.00;;;;;11.08;62.86;101288.44;4994265;28;45589;-82
2022/03/05 06:02:50;;;;;;;;;47.50;37.25;;;;;11.07;62.97;101292.06;4994390;28;47935;-82
2022/03/05 06:05:15;;;;;;;;;53.00;39.50;;;;;11.07;62.91;101292.91;4993574;28;45546;-81
2022/03/05 06:07:40;;;;;;;;;39.25;36.25;;;;;11.13;63.35;101309.53;4993751;28;45507;-81
2022/03/05 06:10:07;;;;;;;;;41.75;34.25;;;;;11.12;63.12;101307.81;4991664;28;45497;-82
2022/03/05 06:12:33;;;;;;;;;44.25;38.25;;;;;11.13;62.89;101306.84;4992280;28;47137;-82
2022/03/05 06:14:58;;;;;;;;;45.25;36.50;;;;;11.15;63.09;101310.31;4994469;28;45455;-81
2022/03/05 06:17:23;;;;;;;;;48.50;39.00;;;;;11.14;63.10;101308.59;4993632;28;45554;-81
2022/03/05 06:19:49;;;;;;;;;43.50;35.00;;;;;11.11;62.88;101303.41;4993622;28;45541;-82
2022/03/05 06:22:14;;;;;;;;;45.50;35.00;;;;;11.14;62.94;101306.78;4992962;28;48816;-82
2022/03/05 06:24:39;;;;;;;;;41.50;34.75;;;;;11.05;62.98;101294.78;4993245;28;45396;-81
2022/03/05 06:27:05;;;;;;;;;43.25;36.75;;;;;11.15;63.06;101316.50;4996887;28;45421;-82
2022/03/05 06:29:30;;;;;;;;;42.00;35.00;;;;;11.13;62.83;101306.84;4995090;28;45497;-82
2022/03/05 06:31:58;;;;;;;;;47.75;39.00;;;;;11.11;62.94;101306.06;4996987;28;45903;-82
2022/03/05 06:34:24;;;;;;;;;46.00;37.75;;;;;11.17;62.90;101319.09;4996235;28;45544;-82
2022/03/05 06:36:49;;;;;;;;;45.25;38.50;;;;;11.17;62.95;101325.28;4996685;28;45622;-82
2022/03/05 06:39:14;;;;;;;;;43.75;36.75;;;;;11.16;62.82;101320.03;4997242;28;45295;-82
2022/03/05 06:41:40;;;;;;;;;48.50;38.50;;;;;11.14;63.02;101327.25;4997175;28;45915;-82
2022/03/05 06:44:06;;;;;;;;;45.25;38.00;;;;;11.07;63.12;101318.69;4995217;28;45516;-82
2022/03/05 06:46:32;;;;;;;;;43.75;38.25;;;;;11.15;62.83;101334.28;4997034;28;45414;-83
2022/03/05 06:48:57;;;;;;;;;52.25;39.50;;;;;11.08;63.18;101333.72;4996599;28;45306;-82
2022/03/05 06:51:23;;;;;;;;;43.25;38.25;;;;;11.13;62.81;101331.69;4996023;28;50879;-82
2022/03/05 06:53:48;;;;;;;;;43.00;37.00;;;;;11.01;62.91;101324.31;4997208;28;45799;-82
2022/03/05 06:56:14;;;;;;;;;51.00;41.75;;;;;11.13;62.92;101338.84;4996814;28;45634;-82
2022/03/05 06:58:39;;;;;;;;;38.00;35.50;;;;;11.13;62.98;101344.16;4993899;28;45554;-82
2022/03/05 07:01:04;;;;;;;;;46.75;37.25;;;;;11.11;63.04;101344.22;4995908;28;45334;-82
2022/03/05 07:03:30;;;;;;;;;48.00;40.50;;;;;11.12;62.62;101345.97;4995974;28;50455;-82
2022/03/05 07:05:55;;;;;;;;;47.00;37.00;;;;;11.09;63.00;101349.66;4997066;28;45473;-82
2022/03/05 07:08:20;;;;;;;;;52.50;41.50;;;;;11.02;62.91;101339.38;4996251;28;45387;-82
2022/03/05 07:10:46;;;;;;;;;51.25;38.00;;;;;11.03;62.86;101346.41;4995950;28;46795;-82
2022/03/05 07:13:11;;;;;;;;;51.00;41.25;;;;;10.98;63.02;101346.63;4994560;28;45694;-82
2022/03/05 07:15:36;;;;;;;;;41.75;37.00;;;;;11.01;63.11;101357.13;4996175;28;45354;-82
2022/03/05 07:18:01;;;;;;;;;46.25;39.50;;;;;10.96;62.92;101345.84;4995553;28;46827;-82
2022/03/05 07:20:27;;;;;;;;;49.25;40.00;;;;;10.93;62.93;101348.66;4995575;28;45501;-82
2022/03/05 07:22:52;;;;;;;;;47.25;38.75;;;;;11.00;62.87;101359.88;4995987;28;45393;-83
2022/03/05 07:25:17;;;;;;;;;50.25;40.00;;;;;11.02;62.78;101356.22;4996195;28;45553;-83
2022/03/05 07:27:43;;;;;;;;;51.25;41.00;;;;;11.00;62.94;101352.75;4996314;28;45414;-83
2022/03/05 07:30:09;;;;;;;;;50.50;41.75;;;;;10.99;62.99;101359.03;4996407;28;46264;-83
2022/03/05 07:32:35;;;;;;;;;53.50;43.00;;;;;10.96;62.77;101353.81;4995384;28;45554;-83
2022/03/05 07:35:01;;;;;;;;;58.25;46.00;;;;;11.04;62.77;101364.09;4995796;28;45667;-83
2022/03/05 07:37:26;;;;;;;;;54.00;44.75;;;;;10.97;62.91;101352.91;4995610;28;45382;-83
2022/03/05 07:39:52;;;;;;;;;53.75;43.25;;;;;11.00;62.73;101363.41;4995590;28;55068;-83
2022/03/05 07:42:17;;;;;;;;;53.25;42.75;;;;;11.05;62.98;101371.19;4995987;28;45739;-84
2022/03/05 07:44:42;;;;;;;;;49.00;39.00;;;;;11.09;62.92;101381.63;4995395;28;45413;-84
2022/03/05 07:47:08;;;;;;;;;50.00;41.50;;;;;11.06;63.12;101370.22;4995185;28;45688;-84
2022/03/05 07:49:33;;;;;;;;;52.50;41.75;;;;;11.14;63.08;101383.22;4994880;28;45918;-82
2022/03/05 07:51:59;;;;;;;;;53.25;42.25;;;;;11.13;62.64;101381.47;4994049;28;45464;-83
2022/03/05 07:54:26;;;;;;;;;46.25;37.50;;;;;11.12;63.04;101388.59;4995566;28;45436;-82
2022/03/05 07:56:52;;;;;;;;;52.75;41.00;;;;;11.17;62.97;101383.06;4994780;28;45533;-82
2022/03/05 07:59:18;;;;;;;;;48.00;39.25;;;;;11.13;62.92;101385.00;4992330;28;48455;-82
2022/03/05 08:01:43;;;;;;;;;46.25;35.25;;;;;11.14;62.70;101381.41;4992215;28;45655;-81
2022/03/05 08:04:08;;;;;;;;;48.50;37.00;;;;;11.06;62.74;101370.22;4995060;28;45425;-82
2022/03/05 08:06:34;;;;;;;;;49.50;38.00;;;;;11.12;62.77;101380.59;4995725;28;45564;-83
2022/03/05 08:08:59;;;;;;;;;50.75;40.50;;;;;11.15;62.92;101374.28;4995869;28;46041;-84
2022/03/05 08:11:25;;;;;;;;;42.00;36.00;;;;;11.19;62.95;101381.19;4994972;28;45515;-83
2022/03/05 08:13:50;;;;;;;;;48.50;37.00;;;;;11.20;62.99;101381.09;4995354;28;45433;-83
2022/03/05 08:16:16;;;;;;;;;43.50;36.50;;;;;11.22;63.19;101381.03;4994833;28;48932;-88
2022/03/05 08:18:41;;;;;;;;;51.00;39.75;;;;;11.28;62.88;101389.59;4993853;28;48620;-83
2022/03/05 08:21:07;;;;;;;;;50.25;39.75;;;;;11.33;62.74;101383.16;4995610;28;51672;-82
2022/03/05 08:23:32;;;;;;;;;51.25;38.00;;;;;11.35;62.49;101387.47;4995459;28;45481;-81
2022/03/05 08:25:57;;;;;;;;;47.50;39.25;;;;;11.39;62.40;101390.88;4995394;28;45433;-82
2022/03/05 08:28:23;;;;;;;;;49.25;39.50;;;;;11.40;62.43;101388.13;4994705;28;57241;-82
2022/03/05 08:30:48;;;;;;;;;43.75;38.00;;;;;11.43;62.48;101387.13;4993952;28;45453;-82
2022/03/05 08:33:16;;;;;;;;;44.75;34.75;;;;;11.46;62.33;101384.28;4995278;28;45412;-82
2022/03/05 08:35:42;;;;;;;;;46.50;38.00;;;;;11.52;61.95;101384.00;4995613;28;45569;-82
2022/03/05 08:38:07;;;;;;;;;47.75;38.00;;;;;11.51;61.75;101384.91;4994949;28;46284;-84
2022/03/05 08:40:33;;;;;;;;;52.00;39.50;;;;;11.51;61.95;101380.44;4994828;28;45573;-82
2022/03/05 08:42:58;;;;;;;;;42.25;37.00;;;;;11.49;61.79;101377.00;4995212;28;45498;-81
2022/03/05 08:45:24;;;;;;;;;50.00;40.25;;;;;11.56;61.74;101387.38;4993717;28;45552;-83
2022/03/05 08:47:49;;;;;;;;;44.50;37.00;;;;;11.55;61.56;101381.19;4995167;28;46742;-82
2022/03/05 08:50:15;;;;;;;;;45.75;38.00;;;;;11.62;61.75;101387.94;4993832;28;45468;-84
2022/03/05 08:52:41;;;;;;;;;44.25;36.75;;;;;11.66;61.53;101386.81;4993688;28;45429;-84
2022/03/05 08:55:09;;;;;;;;;50.25;39.75;;;;;11.65;61.32;101390.44;4994929;28;45450;-82
2022/03/05 08:57:35;;;;;;;;;49.50;39.25;;;;;11.66;61.50;101391.28;4979041;28;46483;-82
2022/03/05 09:00:01;;;;;;;;;43.25;36.50;;;;;11.66;61.35;101383.28;4995230;28;45467;-82
2022/03/05 09:02:27;;;;;;;;;53.25;41.00;;;;;11.65;61.21;101378.91;4993113;28;45407;-82
2022/03/05 09:04:53;;;;;;;;;47.75;37.75;;;;;11.72;61.25;101391.00;4993567;28;45363;-84
2022/03/05 09:07:18;;;;;;;;;48.50;39.00;;;;;11.67;60.78;101385.03;4994589;28;45552;-83
2022/03/05 09:09:44;;;;;;;;;47.25;39.00;;;;;11.67;61.23;101387.69;4994478;28;45430;-83
2022/03/05 09:12:09;;;;;;;;;47.00;37.25;;;;;11.68;61.22;101376.94;4995122;28;45450;-84
2022/03/05 09:14:35;;;;;;;;;47.25;39.00;;;;;11.75;60.91;101380.16;4995132;28;45399;-84
2022/03/05 09:17:00;;;;;;;;;48.25;35.75;;;;;11.78;60.67;101381.81;4993857;28;50519;-84
2022/03/05 09:19:26;;;;;;;;;42.00;37.25;;;;;11.83;60.59;101391.28;4994273;28;45437;-84
2022/03/05 09:21:51;;;;;;;;;58.75;47.50;;;;;11.84;60.49;101378.84;4994649;28;45424;-84
2022/03/05 09:24:16;;;;;;;;;49.25;39.75;;;;;11.89;60.35;101382.16;4994612;28;45417;-84
2022/03/05 09:26:42;;;;;;;;;42.25;34.25;;;;;11.90;60.38;101375.88;4994991;28;46134;-84
2022/03/05 09:29:07;;;;;;;;;47.75;37.25;;;;;11.97;60.13;101382.63;4994374;28;45508;-84
2022/03/05 09:31:32;;;;;;;;;48.75;39.50;;;;;12.03;60.54;101394.81;4993920;28;45542;-84
2022/03/05 09:33:58;;;;;;;;;50.00;40.50;;;;;12.06;60.44;101386.63;4994373;28;45492;-84
2022/03/05 09:36:23;;;;;;;;;46.00;37.25;;;;;12.07;60.45;101385.69;4993101;28;48048;-83
2022/03/05 09:38:49;;;;;;;;;46.50;38.50;;;;;12.12;60.07;101387.19;4994869;28;45334;-83
2022/03/05 09:41:14;;;;;;;;;46.50;38.75;;;;;12.19;60.04;101386.84;4993840;28;45554;-82
2022/03/05 09:43:40;;;;;;;;;48.00;37.00;;;;;12.21;59.92;101380.47;4992773;28;45613;-83
2022/03/05 09:46:05;;;;;;;;;47.25;37.75;;;;;12.23;59.67;101381.25;4993760;28;46048;-83
2022/03/05 09:48:31;;;;;;;;;48.50;39.50;;;;;12.25;59.49;101374.03;4993900;28;48467;-84
2022/03/05 09:50:57;;;;;;;;;47.75;38.50;;;;;12.46;59.02;101384.50;4994586;28;45761;-84
2022/03/05 09:53:31;;;;;;;;;44.00;37.00;;;;;12.45;58.00;101372.13;4993798;28;45481;-84
2022/03/05 09:55:56;;;;;;;;;50.50;41.00;;;;;12.60;57.71;101381.09;4992945;28;45347;-82
2022/03/05 09:58:21;;;;;;;;;47.75;36.50;;;;;12.63;57.73;101368.47;4992464;28;45566;-84
2022/03/05 10:00:47;;;;;;;;;47.00;39.50;;;;;12.81;58.01;101379.94;4994247;28;45765;-84
2022/03/05 10:03:13;;;;;;;;;46.75;39.75;;;;;12.84;57.45;101365.53;4997700;28;45539;-84
2022/03/05 10:05:39;;;;;;;;;47.75;40.50;;;;;12.96;56.54;101370.19;4996417;28;45283;-84
2022/03/05 10:08:10;;;;;;;;;48.00;40.00;;;;;13.05;56.55;101369.69;4997256;28;45630;-82
2022/03/05 10:10:46;;;;;;;;;42.00;36.50;;;;;13.09;56.05;101370.38;4996984;28;45297;-82
2022/03/05 10:13:30;;;;;;;;;44.25;37.75;;;;;13.22;55.64;101379.41;4996849;28;45308;-83
2022/03/05 10:16:01;;;;;;;;;50.50;41.50;;;;;13.22;54.77;101372.25;4995383;28;46081;-83
2022/03/05 10:18:37;;;;;;;;;45.75;38.00;;;;;13.32;54.63;101369.94;4997175;28;45286;-83
2022/03/05 10:21:07;;;;;;;;;44.00;37.50;;;;;13.43;53.77;101374.69;4997046;28;45483;-83
2022/03/05 10:23:38;;;;;;;;;45.75;37.25;;;;;13.49;53.50;101373.47;4996114;28;45461;-83
2022/03/05 10:26:07;;;;;;;;;47.75;39.75;;;;;13.49;53.33;101371.63;4995935;28;45451;-82
2022/03/05 10:28:34;;;;;;;;;47.75;39.50;;;;;13.55;52.03;101375.78;4995670;28;45506;-82
2022/03/05 10:31:11;;;;;;;;;46.75;38.75;;;;;13.57;51.70;101377.41;4996785;28;45425;-83
2022/03/05 10:33:40;;;;;;;;;37.75;33.00;;;;;13.63;51.90;101368.16;4980746;28;45441;-83
2022/03/05 10:36:23;;;;;;;;;45.75;37.50;;;;;13.70;51.80;101368.66;4993288;28;45401;-83
2022/03/05 10:38:55;;;;;;;;;41.00;35.00;;;;;13.79;51.61;101376.16;4994775;28;45486;-83
2022/03/05 10:41:31;;;;;;;;;41.00;35.25;;;;;13.87;50.26;101376.56;4996358;28;45560;-83
2022/03/05 10:44:08;;;;;;;;;45.00;36.25;;;;;13.96;50.61;101376.00;4996173;28;45307;-83
2022/03/05 10:46:43;;;;;;;;;47.00;38.50;;;;;14.07;49.13;101378.06;4994588;28;46605;-82
2022/03/05 10:49:15;;;;;;;;;47.25;38.75;;;;;14.14;49.13;101374.03;4995083;28;45460;-82
2022/03/05 10:51:44;;;;;;;;;45.75;38.75;;;;;14.15;48.09;101370.41;4981437;28;45483;-83
2022/03/05 10:54:10;;;;;;;;;45.50;38.00;;;;;14.20;48.77;101375.47;4996608;28;45376;-82
2022/03/05 10:56:36;;;;;;;;;45.50;37.75;;;;;14.24;48.96;101360.97;4995790;28;47171;-83
2022/03/05 10:59:05;;;;;;;;;40.50;34.75;;;;;14.36;48.35;101372.69;4995741;28;45501;-83
2022/03/05 11:01:32;;;;;;;;;39.50;35.00;;;;;14.43;47.36;101369.56;4996309;28;45490;-83
2022/03/05 11:03:58;;;;;;;;;44.25;36.75;;;;;14.53;47.24;101367.19;4994555;28;45462;-83
2022/03/05 11:06:24;;;;;;;;;44.25;37.25;;;;;14.62;47.17;101363.97;4995890;28;45476;-83
2022/03/05 11:08:50;;;;;;;;;49.50;40.25;;;;;14.74;46.73;101362.28;4996583;28;45250;-83